createdAt,value
2022-11-05T00:00:41.008Z,46.40
2022-11-05T00:02:03.108Z,46.40
2022-11-05T00:03:25.005Z,46.40
2022-11-05T00:04:46.707Z,46.40
2022-11-05T00:06:12.335Z,46.50
2022-11-05T00:07:37.296Z,46.40
2022-11-05T00:09:00.479Z,46.40
2022-11-05T00:10:26.917Z,46.40
2022-11-05T00:11:51.020Z,46.40
2022-11-05T00:13:13.707Z,46.40
2022-11-05T00:14:36.384Z,46.40
2022-11-05T00:15:58.869Z,46.40
2022-11-05T00:17:01.653Z,46.40
2022-11-05T00:18:04.239Z,46.50
2022-11-05T00:19:11.162Z,46.40
2022-11-05T00:20:13.976Z,46.40
2022-11-05T00:21:35.321Z,46.50
2022-11-05T00:22:56.337Z,46.40
2022-11-05T00:24:23.230Z,46.50
2022-11-05T00:25:27.984Z,46.40
2022-11-05T00:26:32.996Z,46.50
2022-11-05T00:27:35.717Z,46.50
2022-11-05T00:28:49.800Z,46.50
2022-11-05T00:29:55.902Z,46.50
2022-11-05T00:31:13.405Z,46.50
2022-11-05T00:32:34.971Z,46.50
2022-11-05T00:33:39.463Z,46.50
2022-11-05T00:34:46.256Z,46.50
2022-11-05T00:35:48.795Z,46.50
2022-11-05T00:36:56.531Z,46.50
2022-11-05T00:37:59.308Z,47.10
2022-11-05T00:39:12.389Z,46.50
2022-11-05T00:40:15.704Z,46.50
2022-11-05T00:41:18.520Z,46.50
2022-11-05T00:42:41.369Z,46.60
2022-11-05T00:44:02.546Z,46.50
2022-11-05T00:45:06.673Z,46.60
2022-11-05T00:46:12.171Z,46.50
2022-11-05T00:47:33.742Z,46.50
2022-11-05T00:48:55.054Z,46.50
2022-11-05T00:49:57.525Z,46.50
2022-11-05T00:51:03.454Z,46.60
2022-11-05T00:52:25.329Z,46.60
2022-11-05T00:53:27.729Z,46.60
2022-11-05T00:54:32.646Z,46.60
2022-11-05T00:55:39.447Z,46.60
2022-11-05T00:56:42.370Z,46.60
2022-11-05T00:57:52.507Z,46.60
2022-11-05T00:58:56.054Z,46.60
2022-11-05T01:00:20.475Z,46.60
2022-11-05T01:01:28.782Z,46.60
2022-11-05T01:02:36.605Z,46.60
2022-11-05T01:03:40.082Z,46.60
2022-11-05T01:04:42.654Z,46.70
2022-11-05T01:06:16.987Z,46.60
2022-11-05T01:07:22.310Z,46.60
2022-11-05T01:08:28.459Z,46.60
2022-11-05T01:09:36.825Z,46.60
2022-11-05T01:12:04.852Z,46.60
2022-11-05T01:13:35.290Z,46.60
2022-11-05T01:14:37.723Z,46.60
2022-11-05T01:15:43.273Z,46.60
2022-11-05T01:16:46.146Z,46.70
2022-11-05T01:17:49.139Z,46.60
2022-11-05T01:18:52.405Z,46.70
2022-11-05T01:19:57.021Z,46.60
2022-11-05T01:21:00.151Z,46.60
2022-11-05T01:22:02.759Z,46.60
2022-11-05T01:23:13.333Z,46.70
2022-11-05T01:24:20.480Z,47.20
2022-11-05T01:25:26.854Z,46.70
2022-11-05T01:26:32.207Z,46.60
2022-11-05T01:27:36.208Z,46.70
2022-11-05T01:28:39.744Z,46.70
2022-11-05T01:29:43.619Z,46.70
2022-11-05T01:30:48.587Z,46.70
2022-11-05T01:31:54.721Z,46.70
2022-11-05T01:32:58.606Z,46.70
2022-11-05T01:34:01.669Z,46.70
2022-11-05T01:35:06.186Z,46.70
2022-11-05T01:36:12.408Z,46.70
2022-11-05T01:37:21.177Z,46.70
2022-11-05T01:38:27.653Z,46.70
2022-11-05T01:39:33.052Z,46.70
2022-11-05T01:40:36.784Z,46.70
2022-11-05T01:41:42.291Z,46.80
2022-11-05T01:42:45.358Z,46.70
2022-11-05T01:43:59.909Z,46.70
2022-11-05T01:45:09.148Z,46.70
2022-11-05T01:46:33.689Z,46.70
2022-11-05T01:47:59.585Z,46.70
2022-11-05T01:49:25.014Z,46.70
2022-11-05T01:51:02.581Z,46.70
2022-11-05T01:52:05.084Z,46.80
2022-11-05T01:53:17.271Z,46.70
2022-11-05T01:54:27.770Z,46.70
2022-11-05T01:55:37.393Z,46.70
2022-11-05T01:57:05.261Z,46.80
2022-11-05T01:58:18.992Z,46.70
2022-11-05T01:59:33.878Z,46.80
2022-11-05T02:00:42.248Z,46.70
2022-11-05T02:01:48.119Z,46.80
2022-11-05T02:02:55.800Z,46.80
2022-11-05T02:04:11.597Z,46.80
2022-11-05T02:05:15.414Z,46.80
2022-11-05T02:06:18.756Z,46.80
2022-11-05T02:07:27.008Z,46.80
2022-11-05T02:08:45.256Z,46.80
2022-11-05T02:10:07.099Z,46.80
2022-11-05T02:11:18.441Z,46.80
2022-11-05T02:12:27.910Z,46.80
2022-11-05T02:13:32.749Z,47.50
2022-11-05T02:14:37.979Z,46.80
2022-11-05T02:16:20.166Z,46.80
2022-11-05T02:17:34.923Z,46.80
2022-11-05T02:19:09.945Z,46.80
2022-11-05T02:20:38.379Z,46.90
2022-11-05T02:21:54.538Z,46.80
2022-11-05T02:23:38.539Z,46.80
2022-11-05T02:24:58.824Z,46.80
2022-11-05T02:26:07.053Z,46.80
2022-11-05T02:27:49.308Z,46.90
2022-11-05T02:29:41.283Z,46.80
2022-11-05T02:31:25.577Z,46.90
2022-11-05T02:32:32.852Z,46.90
2022-11-05T02:33:56.996Z,46.90
2022-11-05T02:35:09.243Z,46.90
2022-11-05T02:36:32.563Z,46.90
2022-11-05T02:37:42.402Z,46.90
2022-11-05T02:39:03.480Z,46.90
2022-11-05T02:40:11.339Z,46.90
2022-11-05T02:41:47.643Z,46.90
2022-11-05T02:42:58.857Z,46.90
2022-11-05T02:44:10.559Z,46.90
2022-11-05T02:45:42.071Z,46.90
2022-11-05T02:46:53.926Z,46.90
2022-11-05T02:48:05.298Z,46.90
2022-11-05T02:49:19.529Z,46.90
2022-11-05T02:50:30.886Z,46.90
2022-11-05T02:51:53.684Z,46.90
2022-11-05T02:53:28.482Z,46.90
2022-11-05T02:54:58.091Z,46.90
2022-11-05T02:56:09.135Z,46.90
2022-11-05T02:57:11.868Z,47.00
2022-11-05T02:58:15.363Z,46.90
2022-11-05T02:59:17.882Z,46.90
2022-11-05T03:00:39.531Z,46.90
2022-11-05T03:01:47.680Z,46.90
2022-11-05T03:02:50.591Z,46.90
2022-11-05T03:04:02.220Z,47.00
2022-11-05T03:05:08.042Z,46.90
2022-11-05T03:06:48.382Z,47.00
2022-11-05T03:08:01.643Z,46.90
2022-11-05T03:09:49.343Z,46.90
2022-11-05T03:11:02.131Z,47.00
2022-11-05T03:12:43.322Z,47.00
2022-11-05T03:14:10.657Z,46.90
2022-11-05T03:15:28.426Z,47.00
2022-11-05T03:16:41.270Z,47.00
2022-11-05T03:18:03.986Z,47.00
2022-11-05T03:19:18.407Z,47.00
2022-11-05T03:20:26.278Z,47.00
2022-11-05T03:21:57.805Z,47.00
2022-11-05T03:23:00.673Z,47.00
2022-11-05T03:24:13.637Z,47.00
2022-11-05T03:25:24.101Z,47.00
2022-11-05T03:26:33.800Z,47.00
2022-11-05T03:27:45.799Z,47.00
2022-11-05T03:28:56.797Z,47.00
2022-11-05T03:30:07.217Z,47.00
2022-11-05T03:31:17.744Z,47.00
2022-11-05T03:32:22.367Z,47.00
2022-11-05T03:33:29.953Z,47.00
2022-11-05T03:34:42.871Z,47.00
2022-11-05T03:35:55.386Z,47.00
2022-11-05T03:37:01.534Z,47.00
2022-11-05T03:38:12.889Z,47.00
2022-11-05T03:39:21.739Z,47.00
2022-11-05T03:40:32.223Z,47.10
2022-11-05T03:41:39.557Z,47.00
2022-11-05T03:42:48.622Z,47.00
2022-11-05T03:44:00.795Z,47.00
2022-11-05T03:45:13.670Z,47.10
2022-11-05T03:46:29.620Z,47.00
2022-11-05T03:47:38.025Z,47.10
2022-11-05T03:48:44.870Z,47.10
2022-11-05T03:49:58.489Z,47.10
2022-11-05T03:51:29.322Z,47.00
2022-11-05T03:52:42.137Z,47.10
2022-11-05T03:53:50.068Z,47.10
2022-11-05T03:54:52.578Z,47.10
2022-11-05T03:56:06.331Z,47.10
2022-11-05T03:57:15.582Z,47.10
2022-11-05T03:58:27.267Z,47.20
2022-11-05T03:59:31.847Z,47.10
2022-11-05T04:00:38.077Z,47.10
2022-11-05T04:01:45.166Z,47.10
2022-11-05T04:02:49.355Z,47.10
2022-11-05T04:03:52.371Z,47.10
2022-11-05T04:04:58.560Z,47.70
2022-11-05T04:06:20.923Z,47.10
2022-11-05T04:07:43.491Z,47.20
2022-11-05T04:09:07.476Z,47.20
2022-11-05T04:10:30.314Z,47.10
2022-11-05T04:11:52.812Z,47.10
2022-11-05T04:13:14.419Z,47.10
2022-11-05T04:14:17.761Z,47.20
2022-11-05T04:15:22.865Z,47.10
2022-11-05T04:16:43.619Z,47.10
2022-11-05T04:17:50.096Z,47.10
2022-11-05T04:19:12.518Z,47.20
2022-11-05T04:20:33.676Z,47.20
2022-11-05T04:21:57.756Z,47.20
2022-11-05T04:23:23.721Z,47.10
2022-11-05T04:24:26.068Z,47.20
2022-11-05T04:25:28.638Z,47.20
2022-11-05T04:26:48.543Z,47.20
2022-11-05T04:27:51.531Z,47.20
2022-11-05T04:29:15.406Z,47.20
2022-11-05T04:30:19.641Z,47.20
2022-11-05T04:31:22.453Z,47.20
2022-11-05T04:32:29.332Z,47.20
2022-11-05T04:33:52.445Z,47.20
2022-11-05T04:34:54.779Z,47.20
2022-11-05T04:36:06.832Z,47.20
2022-11-05T04:37:10.925Z,47.20
2022-11-05T04:38:24.024Z,47.20
2022-11-05T04:39:32.843Z,47.20
2022-11-05T04:40:35.367Z,47.20
2022-11-05T04:41:40.795Z,47.20
2022-11-05T04:42:43.612Z,47.20
2022-11-05T04:43:50.140Z,47.20
2022-11-05T04:44:54.037Z,47.20
2022-11-05T04:46:03.725Z,47.20
2022-11-05T04:47:06.651Z,47.20
2022-11-05T04:48:09.642Z,47.20
2022-11-05T04:49:13.366Z,47.20
2022-11-05T04:50:16.966Z,47.20
2022-11-05T04:51:21.413Z,47.20
2022-11-05T04:52:23.764Z,47.30
2022-11-05T04:53:28.120Z,47.20
2022-11-05T04:54:31.196Z,47.20
2022-11-05T04:55:36.385Z,47.70
2022-11-05T04:56:40.492Z,47.20
2022-11-05T04:57:43.696Z,47.20
2022-11-05T04:59:10.381Z,47.20
2022-11-05T05:00:19.642Z,47.20
2022-11-05T05:01:24.012Z,47.20
2022-11-05T05:02:28.166Z,47.20
2022-11-05T05:03:31.320Z,47.20
2022-11-05T05:04:34.095Z,47.20
2022-11-05T05:05:36.535Z,47.20
2022-11-05T05:06:40.107Z,47.20
2022-11-05T05:07:43.455Z,47.20
2022-11-05T05:08:50.811Z,47.20
2022-11-05T05:09:54.865Z,47.10
2022-11-05T05:11:21.900Z,47.10
2022-11-05T05:12:26.347Z,47.10
2022-11-05T05:13:29.135Z,47.10
2022-11-05T05:14:32.557Z,47.10
2022-11-05T05:15:37.702Z,47.10
2022-11-05T05:16:42.600Z,47.10
2022-11-05T05:17:51.706Z,47.10
2022-11-05T05:18:56.670Z,47.10
2022-11-05T05:20:18.204Z,47.10
2022-11-05T05:21:41.061Z,47.20
2022-11-05T05:22:43.566Z,47.10
2022-11-05T05:23:49.441Z,47.10
2022-11-05T05:24:56.657Z,47.10
2022-11-05T05:26:00.534Z,47.10
2022-11-05T05:27:02.905Z,47.10
2022-11-05T05:28:05.663Z,47.10
2022-11-05T05:29:09.521Z,47.10
2022-11-05T05:30:12.311Z,47.10
2022-11-05T05:31:16.330Z,47.10
2022-11-05T05:33:39.574Z,47.10
2022-11-05T05:34:42.058Z,47.00
2022-11-05T05:35:47.247Z,47.10
2022-11-05T05:36:58.982Z,47.00
2022-11-05T05:38:21.430Z,47.00
2022-11-05T05:39:40.151Z,47.10
2022-11-05T05:40:52.593Z,47.10
2022-11-05T05:41:59.014Z,47.00
2022-11-05T05:43:04.897Z,47.00
2022-11-05T05:44:14.853Z,47.00
2022-11-05T05:45:27.565Z,47.00
2022-11-05T05:46:33.012Z,47.00
2022-11-05T05:47:38.884Z,47.00
2022-11-05T05:48:43.571Z,47.00
2022-11-05T05:49:46.017Z,47.00
2022-11-05T05:50:51.036Z,47.00
2022-11-05T05:51:53.589Z,47.00
2022-11-05T05:52:57.555Z,47.00
2022-11-05T05:54:03.921Z,47.00
2022-11-05T05:55:21.307Z,47.00
2022-11-05T05:56:26.010Z,47.00
2022-11-05T05:58:56.766Z,47.00
2022-11-05T06:00:01.445Z,47.00
2022-11-05T06:01:20.443Z,46.90
2022-11-05T06:02:23.696Z,46.90
2022-11-05T06:03:28.284Z,47.00
2022-11-05T06:04:30.712Z,47.00
2022-11-05T06:05:34.326Z,46.90
2022-11-05T06:06:39.509Z,46.90
2022-11-05T06:07:43.514Z,46.90
2022-11-05T06:08:55.136Z,46.90
2022-11-05T06:09:59.579Z,46.90
2022-11-05T06:11:08.714Z,46.90
2022-11-05T06:12:33.943Z,46.90
2022-11-05T06:13:37.372Z,46.90
2022-11-05T06:14:40.762Z,46.90
2022-11-05T06:16:08.599Z,47.00
2022-11-05T06:17:13.112Z,46.90
2022-11-05T06:18:16.031Z,46.80
2022-11-05T06:19:19.564Z,46.90
2022-11-05T06:20:25.445Z,46.90
2022-11-05T06:21:29.756Z,46.90
2022-11-05T06:22:32.502Z,46.90
2022-11-05T06:23:38.082Z,46.90
2022-11-05T06:24:40.739Z,46.80
2022-11-05T06:25:49.150Z,46.80
2022-11-05T06:26:51.841Z,46.80
2022-11-05T06:27:54.234Z,46.80
2022-11-05T06:28:57.889Z,46.80
2022-11-05T06:30:00.671Z,46.80
2022-11-05T06:31:09.917Z,46.90
2022-11-05T06:32:14.757Z,46.80
2022-11-05T06:33:26.192Z,46.80
2022-11-05T06:34:30.072Z,46.80
2022-11-05T06:35:40.419Z,46.80
2022-11-05T06:36:49.094Z,46.80
2022-11-05T06:37:52.879Z,46.80
2022-11-05T06:38:55.583Z,46.80
2022-11-05T06:40:04.388Z,46.80
2022-11-05T06:41:11.123Z,46.80
2022-11-05T06:42:35.829Z,46.70
2022-11-05T06:43:41.488Z,46.70
2022-11-05T06:44:50.263Z,46.80
2022-11-05T06:45:54.575Z,46.70
2022-11-05T06:47:00.942Z,46.70
2022-11-05T06:48:07.913Z,46.70
2022-11-05T06:49:14.025Z,46.80
2022-11-05T06:50:20.863Z,46.70
2022-11-05T06:51:47.240Z,46.70
2022-11-05T06:53:04.150Z,46.70
2022-11-05T06:54:08.792Z,46.70
2022-11-05T06:55:11.208Z,46.70
2022-11-05T06:56:13.721Z,46.70
2022-11-05T06:57:17.418Z,46.70
2022-11-05T06:58:21.599Z,46.70
2022-11-05T06:59:24.294Z,46.70
2022-11-05T07:00:35.823Z,46.70
2022-11-05T07:01:38.778Z,46.70
2022-11-05T07:02:41.235Z,46.70
2022-11-05T07:03:45.096Z,46.70
2022-11-05T07:04:47.429Z,46.70
2022-11-05T07:05:54.555Z,46.70
2022-11-05T07:07:09.302Z,46.60
2022-11-05T07:08:13.350Z,46.60
2022-11-05T07:09:16.167Z,47.20
2022-11-05T07:10:26.945Z,46.60
2022-11-05T07:11:30.968Z,46.60
2022-11-05T07:12:33.785Z,46.60
2022-11-05T07:13:36.219Z,46.60
2022-11-05T07:14:43.510Z,46.60
2022-11-05T07:15:46.996Z,46.60
2022-11-05T07:16:49.417Z,46.60
2022-11-05T07:18:00.587Z,46.60
2022-11-05T07:19:03.080Z,46.50
2022-11-05T07:20:07.474Z,46.60
2022-11-05T07:21:10.250Z,46.60
2022-11-05T07:22:17.160Z,46.60
2022-11-05T07:23:22.647Z,46.60
2022-11-05T07:24:25.468Z,46.60
2022-11-05T07:25:32.418Z,46.60
2022-11-05T07:26:39.382Z,46.60
2022-11-05T07:27:41.986Z,46.60
2022-11-05T07:28:47.576Z,46.60
2022-11-05T07:29:51.031Z,46.50
2022-11-05T07:30:54.307Z,46.60
2022-11-05T07:31:58.232Z,46.60
2022-11-05T07:33:02.552Z,46.50
2022-11-05T07:34:07.860Z,46.50
2022-11-05T07:35:16.821Z,46.50
2022-11-05T07:36:22.906Z,46.50
2022-11-05T07:37:25.592Z,46.60
2022-11-05T07:38:35.171Z,46.60
2022-11-05T07:39:40.572Z,46.50
2022-11-05T07:40:43.390Z,46.50
2022-11-05T07:41:48.667Z,46.50
2022-11-05T07:43:00.592Z,46.50
2022-11-05T07:44:03.919Z,46.50
2022-11-05T07:45:09.043Z,46.50
2022-11-05T07:46:13.937Z,46.50
2022-11-05T07:47:16.621Z,46.50
2022-11-05T07:48:19.099Z,46.50
2022-11-05T07:49:24.239Z,46.50
2022-11-05T07:50:31.727Z,46.50
2022-11-05T07:51:37.241Z,46.50
2022-11-05T07:52:42.333Z,46.50
2022-11-05T07:53:45.657Z,46.50
2022-11-05T07:54:50.556Z,46.50
2022-11-05T07:55:59.505Z,46.40
2022-11-05T07:57:08.268Z,46.50
2022-11-05T07:58:14.827Z,46.50
2022-11-05T07:59:35.843Z,46.40
2022-11-05T08:00:39.237Z,46.40
2022-11-05T08:01:42.516Z,46.50
2022-11-05T08:03:07.762Z,46.50
2022-11-05T08:04:14.392Z,46.40
2022-11-05T08:05:17.435Z,46.40
2022-11-05T08:07:57.309Z,46.40
2022-11-05T08:09:05.462Z,46.40
2022-11-05T08:10:11.625Z,46.40
2022-11-05T08:11:15.352Z,46.40
2022-11-05T08:12:19.181Z,46.40
2022-11-05T08:13:24.598Z,46.30
2022-11-05T08:14:30.028Z,46.30
2022-11-05T08:15:35.745Z,46.40
2022-11-05T08:16:43.996Z,46.40
2022-11-05T08:18:15.810Z,46.40
2022-11-05T08:19:19.567Z,46.40
2022-11-05T08:20:22.312Z,46.40
2022-11-05T08:21:28.021Z,46.40
2022-11-05T08:22:32.563Z,46.40
2022-11-05T08:23:40.854Z,46.40
2022-11-05T08:24:48.038Z,46.40
2022-11-05T08:26:11.584Z,46.30
2022-11-05T08:27:15.361Z,46.40
2022-11-05T08:28:19.766Z,46.40
2022-11-05T08:29:34.577Z,46.40
2022-11-05T08:30:44.828Z,46.40
2022-11-05T08:31:47.264Z,46.40
2022-11-05T08:32:50.056Z,46.40
2022-11-05T08:33:56.070Z,46.30
2022-11-05T08:35:16.707Z,46.30
2022-11-05T08:36:24.348Z,46.40
2022-11-05T08:37:29.049Z,46.40
2022-11-05T08:38:33.054Z,46.40
2022-11-05T08:39:38.728Z,46.40
2022-11-05T08:40:46.534Z,46.40
2022-11-05T08:41:50.371Z,46.30
2022-11-05T08:43:04.763Z,46.40
2022-11-05T08:44:10.402Z,46.30
2022-11-05T08:45:15.843Z,46.40
2022-11-05T08:46:18.278Z,46.40
2022-11-05T08:47:20.773Z,46.30
2022-11-05T08:48:26.935Z,46.40
2022-11-05T08:49:39.475Z,46.30
2022-11-05T08:50:45.401Z,46.30
2022-11-05T08:51:48.844Z,46.30
2022-11-05T08:52:54.044Z,46.30
2022-11-05T08:53:59.346Z,46.40
2022-11-05T08:55:09.812Z,46.30
2022-11-05T08:56:12.810Z,46.30
2022-11-05T08:57:15.733Z,46.30
2022-11-05T08:58:22.372Z,46.30
2022-11-05T08:59:31.005Z,46.30
2022-11-05T09:02:00.203Z,46.30
2022-11-05T09:03:07.909Z,46.40
2022-11-05T09:04:18.288Z,46.30
2022-11-05T09:05:26.770Z,46.30
2022-11-05T09:06:47.504Z,46.30
2022-11-05T09:07:53.174Z,46.30
2022-11-05T09:08:59.590Z,46.20
2022-11-05T09:10:03.598Z,46.30
2022-11-05T09:11:12.545Z,46.30
2022-11-05T09:12:15.463Z,46.30
2022-11-05T09:13:23.005Z,46.30
2022-11-05T09:14:27.105Z,46.20
2022-11-05T09:15:29.966Z,46.20
2022-11-05T09:16:36.778Z,46.30
2022-11-05T09:17:44.760Z,46.20
2022-11-05T09:18:50.338Z,46.20
2022-11-05T09:19:55.932Z,46.30
2022-11-05T09:21:01.420Z,46.30
2022-11-05T09:22:06.461Z,46.30
2022-11-05T09:23:10.896Z,46.30
2022-11-05T09:24:19.242Z,46.30
2022-11-05T09:25:24.734Z,46.30
2022-11-05T09:26:28.297Z,46.30
2022-11-05T09:27:32.781Z,46.30
2022-11-05T09:28:39.427Z,46.30
2022-11-05T09:29:43.119Z,46.20
2022-11-05T09:30:54.902Z,46.20
2022-11-05T09:32:01.414Z,46.30
2022-11-05T09:33:04.873Z,46.30
2022-11-05T09:34:23.692Z,46.30
2022-11-05T09:35:42.712Z,46.20
2022-11-05T09:36:49.929Z,46.30
2022-11-05T09:37:56.824Z,46.30
2022-11-05T09:39:07.509Z,46.20
2022-11-05T09:40:16.891Z,46.30
2022-11-05T09:41:43.535Z,46.30
2022-11-05T09:42:46.985Z,46.30
2022-11-05T09:43:55.981Z,46.30
2022-11-05T09:45:18.145Z,46.30
2022-11-05T09:46:28.521Z,46.20
2022-11-05T09:47:41.099Z,46.30
2022-11-05T09:48:49.034Z,46.30
2022-11-05T09:50:00.993Z,46.30
2022-11-05T09:51:11.471Z,46.30
2022-11-05T09:52:29.450Z,46.30
2022-11-05T09:53:39.464Z,46.30
2022-11-05T09:54:42.930Z,46.30
2022-11-05T09:55:52.490Z,46.30
2022-11-05T09:57:17.089Z,46.30
2022-11-05T09:58:47.796Z,46.30
2022-11-05T10:00:01.653Z,46.20
2022-11-05T10:01:21.115Z,46.30
2022-11-05T10:02:38.757Z,46.30
2022-11-05T10:03:49.163Z,46.30
2022-11-05T10:04:56.645Z,46.30
2022-11-05T10:06:11.235Z,46.30
2022-11-05T10:07:22.488Z,46.20
2022-11-05T10:08:43.295Z,46.30
2022-11-05T10:10:00.652Z,46.30
2022-11-05T10:11:09.337Z,46.30
2022-11-05T10:12:20.906Z,46.30
2022-11-05T10:13:52.529Z,46.30
2022-11-05T10:15:08.592Z,46.30
2022-11-05T10:16:31.345Z,46.30
2022-11-05T10:17:39.282Z,46.30
2022-11-05T10:18:48.918Z,46.20
2022-11-05T10:20:02.593Z,46.20
2022-11-05T10:21:32.336Z,46.30
2022-11-05T10:22:49.661Z,46.30
2022-11-05T10:23:52.798Z,46.30
2022-11-05T10:24:56.005Z,46.30
2022-11-05T10:26:12.695Z,46.20
2022-11-05T10:27:33.400Z,46.30
2022-11-05T10:28:36.114Z,46.30
2022-11-05T10:29:41.195Z,46.30
2022-11-05T10:30:49.126Z,46.30
2022-11-05T10:31:57.128Z,46.30
2022-11-05T10:33:07.588Z,46.30
2022-11-05T10:34:13.741Z,46.30
2022-11-05T10:35:23.896Z,46.30
2022-11-05T10:36:29.002Z,46.30
2022-11-05T10:37:40.986Z,46.30
2022-11-05T10:38:43.867Z,46.20
2022-11-05T10:39:52.429Z,46.20
2022-11-05T10:41:36.450Z,46.30
2022-11-05T10:43:14.460Z,46.30
2022-11-05T10:44:27.099Z,46.30
2022-11-05T10:45:35.126Z,46.30
2022-11-05T10:47:13.120Z,46.30
2022-11-05T10:48:37.041Z,46.30
2022-11-05T10:50:01.131Z,46.30
2022-11-05T10:51:03.772Z,46.30
2022-11-05T10:52:24.984Z,46.30
2022-11-05T10:53:36.472Z,46.30
2022-11-05T10:54:40.646Z,46.30
2022-11-05T10:55:52.709Z,46.30
2022-11-05T10:56:56.048Z,46.30
2022-11-05T10:58:16.461Z,46.30
2022-11-05T10:59:27.779Z,46.30
2022-11-05T11:00:31.490Z,46.30
2022-11-05T11:01:36.899Z,46.30
2022-11-05T11:02:44.962Z,46.30
2022-11-05T11:03:52.874Z,46.30
2022-11-05T11:04:58.005Z,46.30
2022-11-05T11:06:21.820Z,46.30
2022-11-05T11:07:29.475Z,46.90
2022-11-05T11:08:38.681Z,46.30
2022-11-05T11:09:49.105Z,46.30
2022-11-05T11:10:57.639Z,46.30
2022-11-05T11:12:18.927Z,46.30
2022-11-05T11:14:11.897Z,46.30
2022-11-05T11:15:27.630Z,46.30
2022-11-05T11:16:43.397Z,46.30
2022-11-05T11:17:48.832Z,46.30
2022-11-05T11:19:00.760Z,46.30
2022-11-05T11:20:23.778Z,46.30
2022-11-05T11:21:36.196Z,46.30
2022-11-05T11:23:13.981Z,46.40
2022-11-05T11:24:28.557Z,46.30
2022-11-05T11:25:54.278Z,46.30
2022-11-05T11:27:12.568Z,46.40
2022-11-05T11:28:57.791Z,46.30
2022-11-05T11:30:04.730Z,46.30
2022-11-05T11:31:13.591Z,46.30
2022-11-05T11:32:20.927Z,46.30
2022-11-05T11:33:28.498Z,46.30
2022-11-05T11:34:38.795Z,46.30
2022-11-05T11:35:46.289Z,46.30
2022-11-05T11:36:53.483Z,46.40
2022-11-05T11:38:00.994Z,46.40
2022-11-05T11:39:10.066Z,46.40
2022-11-05T11:40:25.194Z,46.40
2022-11-05T11:41:52.560Z,46.40
2022-11-05T11:43:01.502Z,46.40
2022-11-05T11:44:21.003Z,46.40
2022-11-05T11:45:40.105Z,46.40
2022-11-05T11:46:57.698Z,46.40
2022-11-05T11:48:14.415Z,46.40
2022-11-05T11:49:50.337Z,46.40
2022-11-05T11:51:05.546Z,46.30
2022-11-05T11:52:30.702Z,46.40
2022-11-05T11:53:36.550Z,46.40
2022-11-05T11:54:42.521Z,46.40
2022-11-05T11:56:03.564Z,46.40
2022-11-05T11:57:27.116Z,46.40
2022-11-05T11:58:43.523Z,46.30
2022-11-05T12:00:09.633Z,46.40
2022-11-05T12:01:20.488Z,46.40
2022-11-05T12:02:50.739Z,46.40
2022-11-05T12:04:33.086Z,46.40
2022-11-05T12:05:47.789Z,46.40
2022-11-05T12:07:39.153Z,46.30
2022-11-05T12:09:06.836Z,46.40
2022-11-05T12:10:37.032Z,46.40
2022-11-05T12:11:51.695Z,46.40
2022-11-05T12:13:18.589Z,46.40
2022-11-05T12:14:35.841Z,46.40
2022-11-05T12:15:57.496Z,46.40
2022-11-05T12:17:27.181Z,46.40
2022-11-05T12:19:02.931Z,46.40
2022-11-05T12:20:27.505Z,46.40
2022-11-05T12:22:11.063Z,46.40
2022-11-05T12:23:54.522Z,46.40
2022-11-05T12:25:27.623Z,46.40
2022-11-05T12:26:47.491Z,46.40
2022-11-05T12:28:24.149Z,46.40
2022-11-05T12:29:51.684Z,46.40
2022-11-05T12:31:07.656Z,46.40
2022-11-05T12:32:48.347Z,46.40
2022-11-05T12:34:01.129Z,46.30
2022-11-05T12:35:30.817Z,46.40
2022-11-05T12:36:44.865Z,46.30
2022-11-05T12:37:56.609Z,46.30
2022-11-05T12:39:40.781Z,46.40
2022-11-05T12:41:01.331Z,46.30
2022-11-05T12:42:36.106Z,46.40
2022-11-05T12:43:51.602Z,46.40
2022-11-05T12:45:04.516Z,46.40
2022-11-05T12:46:24.958Z,46.30
2022-11-05T12:48:11.221Z,46.90
2022-11-05T12:49:36.671Z,46.30
2022-11-05T12:50:53.662Z,46.30
2022-11-05T12:52:54.779Z,46.30
2022-11-05T12:54:29.350Z,46.30
2022-11-05T12:55:42.807Z,46.30
2022-11-05T12:56:53.975Z,46.30
2022-11-05T12:58:13.879Z,46.30
2022-11-05T12:59:20.031Z,46.30
2022-11-05T13:00:27.884Z,46.30
2022-11-05T13:01:41.735Z,46.30
2022-11-05T13:03:23.563Z,46.30
2022-11-05T13:04:42.028Z,46.30
2022-11-05T13:06:01.568Z,46.30
2022-11-05T13:07:15.858Z,46.30
2022-11-05T13:08:33.669Z,46.30
2022-11-05T13:10:05.030Z,46.30
2022-11-05T13:11:38.192Z,46.30
2022-11-05T13:12:43.585Z,46.30
2022-11-05T13:14:20.407Z,46.30
2022-11-05T13:15:42.756Z,46.30
2022-11-05T13:16:47.975Z,46.30
2022-11-05T13:17:59.960Z,46.30
2022-11-05T13:19:15.107Z,46.20
2022-11-05T13:20:26.048Z,46.30
2022-11-05T13:21:36.517Z,46.30
2022-11-05T13:22:54.784Z,46.80
2022-11-05T13:24:27.895Z,46.30
2022-11-05T13:25:40.052Z,46.20
2022-11-05T13:26:56.927Z,46.30
2022-11-05T13:28:12.645Z,46.30
2022-11-05T13:29:43.017Z,46.30
2022-11-05T13:30:51.637Z,46.30
2022-11-05T13:32:04.675Z,46.80
2022-11-05T13:33:28.777Z,46.20
2022-11-05T13:34:37.770Z,46.20
2022-11-05T13:36:14.660Z,46.20
2022-11-05T13:37:48.475Z,46.30
2022-11-05T13:39:09.223Z,46.20
2022-11-05T13:40:21.909Z,46.20
2022-11-05T13:41:35.183Z,46.20
2022-11-05T13:43:11.339Z,46.20
2022-11-05T13:44:27.196Z,46.10
2022-11-05T13:46:08.176Z,46.10
2022-11-05T13:47:38.778Z,46.20
2022-11-05T13:49:00.660Z,46.20
2022-11-05T13:50:41.639Z,46.20
2022-11-05T13:51:57.796Z,46.10
2022-11-05T13:53:11.959Z,46.10
2022-11-05T13:54:40.670Z,46.10
2022-11-05T13:55:58.509Z,46.10
2022-11-05T13:57:16.505Z,46.10
2022-11-05T13:58:35.924Z,46.10
2022-11-05T13:59:49.895Z,46.10
2022-11-05T14:01:29.434Z,46.10
2022-11-05T14:02:44.672Z,46.10
2022-11-05T14:03:54.135Z,46.10
2022-11-05T14:05:01.248Z,46.10
2022-11-05T14:06:09.139Z,46.10
2022-11-05T14:07:22.369Z,46.10
2022-11-05T14:08:28.210Z,46.10
2022-11-05T14:09:30.730Z,46.10
2022-11-05T14:10:43.341Z,46.10
2022-11-05T14:11:55.865Z,46.10
2022-11-05T14:13:16.963Z,46.10
2022-11-05T14:14:25.322Z,46.10
2022-11-05T14:15:31.192Z,46.00
2022-11-05T14:17:09.786Z,46.10
2022-11-05T14:18:43.371Z,46.10
2022-11-05T14:20:05.430Z,46.00
2022-11-05T14:21:47.001Z,46.00
2022-11-05T14:22:50.609Z,46.00
2022-11-05T14:23:59.083Z,46.00
2022-11-05T14:25:19.470Z,46.00
2022-11-05T14:26:42.662Z,46.00
2022-11-05T14:27:56.763Z,46.00
2022-11-05T14:29:08.292Z,46.00
2022-11-05T14:30:42.962Z,46.00
2022-11-05T14:32:08.188Z,46.00
2022-11-05T14:33:34.050Z,46.00
2022-11-05T14:34:57.011Z,46.00
2022-11-05T14:36:21.129Z,46.00
2022-11-05T14:37:29.580Z,45.90
2022-11-05T14:38:33.194Z,45.90
2022-11-05T14:39:57.348Z,45.90
2022-11-05T14:41:06.827Z,45.90
2022-11-05T14:42:30.785Z,45.90
2022-11-05T14:43:36.146Z,45.90
2022-11-05T14:44:58.466Z,45.90
2022-11-05T14:46:17.641Z,45.90
2022-11-05T14:47:24.452Z,45.90
2022-11-05T14:48:46.358Z,45.90
2022-11-05T14:50:20.765Z,45.90
2022-11-05T14:51:33.516Z,45.80
2022-11-05T14:52:40.282Z,45.90
2022-11-05T14:53:45.634Z,45.80
2022-11-05T14:54:52.185Z,45.90
2022-11-05T14:56:10.689Z,45.90
2022-11-05T14:57:35.939Z,45.80
2022-11-05T14:58:43.533Z,45.90
2022-11-05T15:00:01.111Z,46.40
2022-11-05T15:01:09.892Z,45.80
2022-11-05T15:02:18.703Z,45.80
2022-11-05T15:03:45.821Z,45.80
2022-11-05T15:04:52.931Z,45.80
2022-11-05T15:06:27.642Z,45.70
2022-11-05T15:07:39.003Z,45.70
2022-11-05T15:08:50.006Z,45.70
2022-11-05T15:09:53.051Z,45.70
2022-11-05T15:11:04.681Z,45.70
2022-11-05T15:12:12.724Z,45.60
2022-11-05T15:13:40.138Z,45.70
2022-11-05T15:15:24.523Z,45.70
2022-11-05T15:16:37.007Z,45.60
2022-11-05T15:17:49.043Z,45.60
2022-11-05T15:18:54.073Z,45.60
2022-11-05T15:20:23.104Z,45.60
2022-11-05T15:21:34.511Z,45.60
2022-11-05T15:23:59.020Z,45.50
2022-11-05T15:25:04.621Z,45.60
2022-11-05T15:26:28.360Z,45.60
2022-11-05T15:27:37.225Z,45.60
2022-11-05T15:28:49.653Z,45.60
2022-11-05T15:29:52.920Z,45.60
2022-11-05T15:31:01.817Z,45.60
2022-11-05T15:32:17.141Z,45.50
2022-11-05T15:33:24.594Z,45.60
2022-11-05T15:34:35.574Z,45.60
2022-11-05T15:35:43.671Z,45.50
2022-11-05T15:36:54.849Z,45.50
2022-11-05T15:38:02.053Z,45.50
2022-11-05T15:39:29.946Z,45.50
2022-11-05T15:40:38.711Z,45.50
2022-11-05T15:41:41.764Z,45.50
2022-11-05T15:42:46.035Z,45.50
2022-11-05T15:43:51.377Z,45.50